sensor_id;sensor_type;location;lat;lon;timestamp;temperature;humidity
3100;DHT22;1560;52.746;13.474;2022-10-16T00:02:19;13.80;99.90
3100;DHT22;1560;52.746;13.474;2022-10-16T00:04:48;13.80;99.90
3100;DHT22;1560;52.746;13.474;2022-10-16T00:07:16;13.80;99.90
3100;DHT22;1560;52.746;13.474;2022-10-16T00:09:46;13.80;99.90
3100;DHT22;1560;52.746;13.474;2022-10-16T00:12:14;13.80;99.90
3100;DHT22;1560;52.746;13.474;2022-10-16T00:14:42;13.90;99.90
3100;DHT22;1560;52.746;13.474;2022-10-16T00:19:47;13.90;99.90
3100;DHT22;1560;52.746;13.474;2022-10-16T00:24:52;13.90;99.90
3100;DHT22;1560;52.746;13.474;2022-10-16T00:27:21;14.00;99.90
3100;DHT22;1560;52.746;13.474;2022-10-16T00:29:51;14.00;99.90
3100;DHT22;1560;52.746;13.474;2022-10-16T00:32:20;14.00;99.90
3100;DHT22;1560;52.746;13.474;2022-10-16T00:34:48;14.00;99.90
3100;DHT22;1560;52.746;13.474;2022-10-16T00:37:16;14.10;99.90
3100;DHT22;1560;52.746;13.474;2022-10-16T00:39:45;14.10;99.90
3100;DHT22;1560;52.746;13.474;2022-10-16T00:42:15;14.10;99.90
3100;DHT22;1560;52.746;13.474;2022-10-16T00:44:47;14.10;99.90
3100;DHT22;1560;52.746;13.474;2022-10-16T00:50:04;14.10;99.90
3100;DHT22;1560;52.746;13.474;2022-10-16T00:55:10;14.10;99.90
3100;DHT22;1560;52.746;13.474;2022-10-16T00:57:39;14.10;99.90
3100;DHT22;1560;52.746;13.474;2022-10-16T01:02:53;14.10;99.90
3100;DHT22;1560;52.746;13.474;2022-10-16T01:05:23;14.10;99.90
3100;DHT22;1560;52.746;13.474;2022-10-16T01:07:56;14.10;99.90
3100;DHT22;1560;52.746;13.474;2022-10-16T01:13:07;14.20;99.90
3100;DHT22;1560;52.746;13.474;2022-10-16T01:15:40;14.10;99.90
3100;DHT22;1560;52.746;13.474;2022-10-16T01:20:50;14.10;99.90
3100;DHT22;1560;52.746;13.474;2022-10-16T01:23:28;14.10;99.90
3100;DHT22;1560;52.746;13.474;2022-10-16T01:28:39;14.10;99.90
3100;DHT22;1560;52.746;13.474;2022-10-16T01:31:10;14.10;99.90
3100;DHT22;1560;52.746;13.474;2022-10-16T01:36:21;14.20;99.90
3100;DHT22;1560;52.746;13.474;2022-10-16T01:38:51;14.20;99.90
3100;DHT22;1560;52.746;13.474;2022-10-16T01:44:02;14.10;99.90
3100;DHT22;1560;52.746;13.474;2022-10-16T01:46:32;14.10;99.90
3100;DHT22;1560;52.746;13.474;2022-10-16T01:51:38;14.20;99.90
3100;DHT22;1560;52.746;13.474;2022-10-16T01:56:46;14.20;99.90
3100;DHT22;1560;52.746;13.474;2022-10-16T02:01:56;14.20;99.90
3100;DHT22;1560;52.746;13.474;2022-10-16T02:04:29;14.10;99.90
3100;DHT22;1560;52.746;13.474;2022-10-16T02:06:58;14.20;99.90
3100;DHT22;1560;52.746;13.474;2022-10-16T02:09:27;14.10;99.90
3100;DHT22;1560;52.746;13.474;2022-10-16T02:11:57;14.10;99.90
3100;DHT22;1560;52.746;13.474;2022-10-16T02:17:12;14.20;99.90
3100;DHT22;1560;52.746;13.474;2022-10-16T02:19:41;14.10;99.90
3100;DHT22;1560;52.746;13.474;2022-10-16T02:22:12;14.10;99.90
3100;DHT22;1560;52.746;13.474;2022-10-16T02:27:24;14.10;99.90
3100;DHT22;1560;52.746;13.474;2022-10-16T02:29:54;14.10;99.90
3100;DHT22;1560;52.746;13.474;2022-10-16T02:35:07;14.20;99.90
3100;DHT22;1560;52.746;13.474;2022-10-16T02:37:37;14.10;99.90
3100;DHT22;1560;52.746;13.474;2022-10-16T02:40:09;14.20;99.90
3100;DHT22;1560;52.746;13.474;2022-10-16T02:45:17;14.20;99.90
3100;DHT22;1560;52.746;13.474;2022-10-16T02:47:46;14.20;99.90
3100;DHT22;1560;52.746;13.474;2022-10-16T02:50:15;14.20;99.90
3100;DHT22;1560;52.746;13.474;2022-10-16T02:55:21;14.10;99.90
3100;DHT22;1560;52.746;13.474;2022-10-16T02:57:51;14.20;99.90
3100;DHT22;1560;52.746;13.474;2022-10-16T03:00:19;14.10;99.90
3100;DHT22;1560;52.746;13.474;2022-10-16T03:02:48;14.10;99.90
3100;DHT22;1560;52.746;13.474;2022-10-16T03:05:17;14.10;99.90
3100;DHT22;1560;52.746;13.474;2022-10-16T03:07:45;14.10;99.90
3100;DHT22;1560;52.746;13.474;2022-10-16T03:10:14;14.10;99.90
3100;DHT22;1560;52.746;13.474;2022-10-16T03:12:42;14.00;99.90
3100;DHT22;1560;52.746;13.474;2022-10-16T03:17:47;14.00;99.90
3100;DHT22;1560;52.746;13.474;2022-10-16T03:20:16;14.00;99.90
3100;DHT22;1560;52.746;13.474;2022-10-16T03:22:44;14.00;99.90
3100;DHT22;1560;52.746;13.474;2022-10-16T03:25:13;13.90;99.90
3100;DHT22;1560;52.746;13.474;2022-10-16T03:27:41;13.90;99.90
3100;DHT22;1560;52.746;13.474;2022-10-16T03:32:47;14.00;99.90
3100;DHT22;1560;52.746;13.474;2022-10-16T03:35:15;14.00;99.90
3100;DHT22;1560;52.746;13.474;2022-10-16T03:37:44;14.00;99.90
3100;DHT22;1560;52.746;13.474;2022-10-16T03:40:13;14.00;99.90
3100;DHT22;1560;52.746;13.474;2022-10-16T03:45:17;13.90;99.90
3100;DHT22;1560;52.746;13.474;2022-10-16T03:47:46;13.90;99.90
3100;DHT22;1560;52.746;13.474;2022-10-16T03:50:15;13.90;99.90
3100;DHT22;1560;52.746;13.474;2022-10-16T03:52:44;13.90;99.90
3100;DHT22;1560;52.746;13.474;2022-10-16T03:55:12;13.90;99.90
3100;DHT22;1560;52.746;13.474;2022-10-16T04:00:17;13.80;99.90
3100;DHT22;1560;52.746;13.474;2022-10-16T04:05:21;13.80;99.90
3100;DHT22;1560;52.746;13.474;2022-10-16T04:07:50;13.80;99.90
3100;DHT22;1560;52.746;13.474;2022-10-16T04:12:54;13.70;99.90
3100;DHT22;1560;52.746;13.474;2022-10-16T04:15:23;13.70;99.90
3100;DHT22;1560;52.746;13.474;2022-10-16T04:17:52;13.70;99.90
3100;DHT22;1560;52.746;13.474;2022-10-16T04:20:21;13.70;99.90
3100;DHT22;1560;52.746;13.474;2022-10-16T04:22:49;13.80;99.90
3100;DHT22;1560;52.746;13.474;2022-10-16T04:25:18;13.80;99.90
3100;DHT22;1560;52.746;13.474;2022-10-16T04:27:47;13.70;99.90
3100;DHT22;1560;52.746;13.474;2022-10-16T04:30:16;13.80;99.90
3100;DHT22;1560;52.746;13.474;2022-10-16T04:32:48;13.70;99.90
3100;DHT22;1560;52.746;13.474;2022-10-16T04:35:17;13.70;99.90
3100;DHT22;1560;52.746;13.474;2022-10-16T04:40:21;13.60;99.90
3100;DHT22;1560;52.746;13.474;2022-10-16T04:42:50;13.60;99.90
3100;DHT22;1560;52.746;13.474;2022-10-16T04:45:18;13.60;99.90
3100;DHT22;1560;52.746;13.474;2022-10-16T04:47:47;13.60;99.90
3100;DHT22;1560;52.746;13.474;2022-10-16T04:50:15;13.60;99.90
3100;DHT22;1560;52.746;13.474;2022-10-16T04:52:44;13.60;99.90
3100;DHT22;1560;52.746;13.474;2022-10-16T04:55:13;13.60;99.90
3100;DHT22;1560;52.746;13.474;2022-10-16T05:00:17;13.50;99.90
3100;DHT22;1560;52.746;13.474;2022-10-16T05:02:46;13.50;99.90
3100;DHT22;1560;52.746;13.474;2022-10-16T05:05:15;13.50;99.90
3100;DHT22;1560;52.746;13.474;2022-10-16T05:07:43;13.50;99.90
3100;DHT22;1560;52.746;13.474;2022-10-16T05:12:39;13.40;99.90
3100;DHT22;1560;52.746;13.474;2022-10-16T05:15:10;13.40;99.90
3100;DHT22;1560;52.746;13.474;2022-10-16T05:17:38;13.30;99.90
3100;DHT22;1560;52.746;13.474;2022-10-16T05:20:08;13.30;99.90
3100;DHT22;1560;52.746;13.474;2022-10-16T05:25:12;13.30;99.90
3100;DHT22;1560;52.746;13.474;2022-10-16T05:27:41;13.30;99.90
3100;DHT22;1560;52.746;13.474;2022-10-16T05:30:10;13.20;99.90
3100;DHT22;1560;52.746;13.474;2022-10-16T05:35:15;13.30;99.90
3100;DHT22;1560;52.746;13.474;2022-10-16T05:37:44;13.30;99.90
3100;DHT22;1560;52.746;13.474;2022-10-16T05:40:14;13.30;99.90
3100;DHT22;1560;52.746;13.474;2022-10-16T05:45:19;13.30;99.90
3100;DHT22;1560;52.746;13.474;2022-10-16T05:47:47;13.30;99.90
3100;DHT22;1560;52.746;13.474;2022-10-16T05:50:16;13.30;99.90
3100;DHT22;1560;52.746;13.474;2022-10-16T05:55:20;13.30;99.90
3100;DHT22;1560;52.746;13.474;2022-10-16T05:57:49;13.30;99.90
3100;DHT22;1560;52.746;13.474;2022-10-16T06:00:18;13.40;99.90
3100;DHT22;1560;52.746;13.474;2022-10-16T06:02:46;13.40;99.90
3100;DHT22;1560;52.746;13.474;2022-10-16T06:05:15;13.40;99.90
3100;DHT22;1560;52.746;13.474;2022-10-16T06:07:43;13.50;99.90
3100;DHT22;1560;52.746;13.474;2022-10-16T06:12:59;13.50;99.90
3100;DHT22;1560;52.746;13.474;2022-10-16T06:18:04;13.60;99.90
3100;DHT22;1560;52.746;13.474;2022-10-16T06:20:32;13.60;99.90
3100;DHT22;1560;52.746;13.474;2022-10-16T06:25:37;13.60;99.90
3100;DHT22;1560;52.746;13.474;2022-10-16T06:28:06;13.70;99.90
3100;DHT22;1560;52.746;13.474;2022-10-16T06:30:34;13.70;99.90
3100;DHT22;1560;52.746;13.474;2022-10-16T06:33:03;13.70;99.90
3100;DHT22;1560;52.746;13.474;2022-10-16T06:35:31;13.70;99.90
3100;DHT22;1560;52.746;13.474;2022-10-16T06:38:00;13.70;99.90
3100;DHT22;1560;52.746;13.474;2022-10-16T06:40:28;13.70;99.90
3100;DHT22;1560;52.746;13.474;2022-10-16T06:42:57;13.80;99.90
3100;DHT22;1560;52.746;13.474;2022-10-16T06:48:02;13.80;99.90
3100;DHT22;1560;52.746;13.474;2022-10-16T06:50:31;13.80;99.90
3100;DHT22;1560;52.746;13.474;2022-10-16T06:53:00;13.80;99.90
3100;DHT22;1560;52.746;13.474;2022-10-16T06:55:28;13.80;99.90
3100;DHT22;1560;52.746;13.474;2022-10-16T06:57:57;13.80;99.90
3100;DHT22;1560;52.746;13.474;2022-10-16T07:03:01;13.90;99.90
3100;DHT22;1560;52.746;13.474;2022-10-16T07:05:30;13.90;99.90
3100;DHT22;1560;52.746;13.474;2022-10-16T07:07:58;14.00;99.90
3100;DHT22;1560;52.746;13.474;2022-10-16T07:13:03;14.00;99.90
3100;DHT22;1560;52.746;13.474;2022-10-16T07:15:34;14.10;99.90
3100;DHT22;1560;52.746;13.474;2022-10-16T07:18:03;14.10;99.90
3100;DHT22;1560;52.746;13.474;2022-10-16T07:20:31;14.20;99.90
3100;DHT22;1560;52.746;13.474;2022-10-16T07:23:00;14.20;99.90
3100;DHT22;1560;52.746;13.474;2022-10-16T07:28:05;14.20;99.90
3100;DHT22;1560;52.746;13.474;2022-10-16T07:30:36;14.30;99.90
3100;DHT22;1560;52.746;13.474;2022-10-16T07:35:49;14.30;99.90
3100;DHT22;1560;52.746;13.474;2022-10-16T07:38:17;14.30;99.90
3100;DHT22;1560;52.746;13.474;2022-10-16T07:40:46;14.30;99.90
3100;DHT22;1560;52.746;13.474;2022-10-16T07:43:15;14.40;99.90
3100;DHT22;1560;52.746;13.474;2022-10-16T07:45:50;14.40;99.90
3100;DHT22;1560;52.746;13.474;2022-10-16T07:48:19;14.40;99.90
3100;DHT22;1560;52.746;13.474;2022-10-16T07:50:48;14.50;99.90
3100;DHT22;1560;52.746;13.474;2022-10-16T07:53:17;14.50;99.90
3100;DHT22;1560;52.746;13.474;2022-10-16T07:58:21;14.60;99.90
3100;DHT22;1560;52.746;13.474;2022-10-16T08:00:50;14.60;99.90
3100;DHT22;1560;52.746;13.474;2022-10-16T08:03:18;14.60;99.90
3100;DHT22;1560;52.746;13.474;2022-10-16T08:05:46;14.70;99.90
3100;DHT22;1560;52.746;13.474;2022-10-16T08:08:16;14.70;99.90
3100;DHT22;1560;52.746;13.474;2022-10-16T08:13:23;14.80;99.90
3100;DHT22;1560;52.746;13.474;2022-10-16T08:15:53;14.90;99.90
3100;DHT22;1560;52.746;13.474;2022-10-16T08:18:22;14.90;99.90
3100;DHT22;1560;52.746;13.474;2022-10-16T08:20:56;15.00;99.90
3100;DHT22;1560;52.746;13.474;2022-10-16T08:26:05;15.10;99.90
3100;DHT22;1560;52.746;13.474;2022-10-16T08:28:33;15.20;99.90
3100;DHT22;1560;52.746;13.474;2022-10-16T08:31:10;15.20;99.90
3100;DHT22;1560;52.746;13.474;2022-10-16T08:33:40;15.20;99.90
3100;DHT22;1560;52.746;13.474;2022-10-16T08:36:10;15.30;99.90
3100;DHT22;1560;52.746;13.474;2022-10-16T08:41:23;15.40;99.90
3100;DHT22;1560;52.746;13.474;2022-10-16T08:44:03;15.40;99.90
3100;DHT22;1560;52.746;13.474;2022-10-16T08:46:39;15.50;99.90
3100;DHT22;1560;52.746;13.474;2022-10-16T08:49:11;15.60;99.90
3100;DHT22;1560;52.746;13.474;2022-10-16T08:54:22;15.70;99.90
3100;DHT22;1560;52.746;13.474;2022-10-16T08:56:51;15.70;99.90
3100;DHT22;1560;52.746;13.474;2022-10-16T08:59:22;15.70;99.90
3100;DHT22;1560;52.746;13.474;2022-10-16T09:01:51;15.70;99.90
3100;DHT22;1560;52.746;13.474;2022-10-16T09:07:15;15.80;99.90
3100;DHT22;1560;52.746;13.474;2022-10-16T09:09:56;15.90;99.90
3100;DHT22;1560;52.746;13.474;2022-10-16T09:15:13;16.00;99.90
3100;DHT22;1560;52.746;13.474;2022-10-16T09:17:51;16.10;99.90
3100;DHT22;1560;52.746;13.474;2022-10-16T09:20:42;16.10;99.90
3100;DHT22;1560;52.746;13.474;2022-10-16T09:25:50;16.20;99.90
3100;DHT22;1560;52.746;13.474;2022-10-16T09:28:19;16.20;99.90
3100;DHT22;1560;52.746;13.474;2022-10-16T09:33:28;16.30;99.90
3100;DHT22;1560;52.746;13.474;2022-10-16T09:35:58;16.30;99.90
3100;DHT22;1560;52.746;13.474;2022-10-16T09:38:28;16.40;99.90
3100;DHT22;1560;52.746;13.474;2022-10-16T09:43:36;16.50;99.90
3100;DHT22;1560;52.746;13.474;2022-10-16T09:46:07;16.60;99.90
3100;DHT22;1560;52.746;13.474;2022-10-16T09:48:39;16.70;99.90
3100;DHT22;1560;52.746;13.474;2022-10-16T09:51:16;16.80;99.90
3100;DHT22;1560;52.746;13.474;2022-10-16T09:56:24;17.10;99.90
3100;DHT22;1560;52.746;13.474;2022-10-16T09:58:54;17.20;99.90
3100;DHT22;1560;52.746;13.474;2022-10-16T10:01:26;17.20;99.90
3100;DHT22;1560;52.746;13.474;2022-10-16T10:03:57;17.20;99.90
3100;DHT22;1560;52.746;13.474;2022-10-16T10:06:31;17.10;99.90
3100;DHT22;1560;52.746;13.474;2022-10-16T10:09:04;17.10;99.90
3100;DHT22;1560;52.746;13.474;2022-10-16T10:11:45;17.20;99.90
3100;DHT22;1560;52.746;13.474;2022-10-16T10:14:30;17.20;99.90
3100;DHT22;1560;52.746;13.474;2022-10-16T10:19:51;17.30;99.90
3100;DHT22;1560;52.746;13.474;2022-10-16T10:22:26;17.40;99.90
3100;DHT22;1560;52.746;13.474;2022-10-16T10:25:12;17.50;99.90
3100;DHT22;1560;52.746;13.474;2022-10-16T10:27:45;17.50;99.90
3100;DHT22;1560;52.746;13.474;2022-10-16T10:30:19;17.50;99.90
3100;DHT22;1560;52.746;13.474;2022-10-16T10:32:52;17.50;99.90
3100;DHT22;1560;52.746;13.474;2022-10-16T10:35:24;17.60;99.90
3100;DHT22;1560;52.746;13.474;2022-10-16T10:38:02;17.70;99.90
3100;DHT22;1560;52.746;13.474;2022-10-16T10:43:12;17.90;99.90
3100;DHT22;1560;52.746;13.474;2022-10-16T10:48:33;17.90;99.90
3100;DHT22;1560;52.746;13.474;2022-10-16T10:51:03;18.00;99.90
3100;DHT22;1560;52.746;13.474;2022-10-16T10:56:22;17.90;99.90
3100;DHT22;1560;52.746;13.474;2022-10-16T10:59:04;17.80;99.90
3100;DHT22;1560;52.746;13.474;2022-10-16T11:01:39;17.80;99.90
3100;DHT22;1560;52.746;13.474;2022-10-16T11:07:32;17.90;99.90
3100;DHT22;1560;52.746;13.474;2022-10-16T11:10:03;17.80;99.90
3100;DHT22;1560;52.746;13.474;2022-10-16T11:12:34;17.90;99.90
3100;DHT22;1560;52.746;13.474;2022-10-16T11:17:45;17.90;99.90
3100;DHT22;1560;52.746;13.474;2022-10-16T11:20:18;18.00;99.90
3100;DHT22;1560;52.746;13.474;2022-10-16T11:22:48;17.90;99.90
3100;DHT22;1560;52.746;13.474;2022-10-16T11:25:19;17.90;99.90
3100;DHT22;1560;52.746;13.474;2022-10-16T11:27:51;17.90;99.90
3100;DHT22;1560;52.746;13.474;2022-10-16T11:30:22;17.90;99.90
3100;DHT22;1560;52.746;13.474;2022-10-16T11:33:00;17.80;99.90
3100;DHT22;1560;52.746;13.474;2022-10-16T11:35:37;17.80;99.90
3100;DHT22;1560;52.746;13.474;2022-10-16T11:38:10;17.90;99.90
3100;DHT22;1560;52.746;13.474;2022-10-16T11:43:19;17.90;99.90
3100;DHT22;1560;52.746;13.474;2022-10-16T11:45:51;17.90;99.90
3100;DHT22;1560;52.746;13.474;2022-10-16T11:51:16;17.90;99.90
3100;DHT22;1560;52.746;13.474;2022-10-16T11:56:26;18.00;99.90
3100;DHT22;1560;52.746;13.474;2022-10-16T11:59:02;18.00;99.90
3100;DHT22;1560;52.746;13.474;2022-10-16T12:34:25;19.30;99.90
3100;DHT22;1560;52.746;13.474;2022-10-16T12:36:54;19.10;99.90
3100;DHT22;1560;52.746;13.474;2022-10-16T12:39:24;19.20;99.90
3100;DHT22;1560;52.746;13.474;2022-10-16T12:42:05;19.20;99.90
3100;DHT22;1560;52.746;13.474;2022-10-16T12:47:57;19.20;90.00
3100;DHT22;1560;52.746;13.474;2022-10-16T12:50:33;19.10;99.90
3100;DHT22;1560;52.746;13.474;2022-10-16T13:06:22;19.00;99.90
3100;DHT22;1560;52.746;13.474;2022-10-16T13:09:04;18.70;99.90
3100;DHT22;1560;52.746;13.474;2022-10-16T13:14:19;18.60;99.90
3100;DHT22;1560;52.746;13.474;2022-10-16T13:16:52;18.50;99.90
3100;DHT22;1560;52.746;13.474;2022-10-16T13:19:24;18.40;99.90
3100;DHT22;1560;52.746;13.474;2022-10-16T13:21:59;18.40;99.90
3100;DHT22;1560;52.746;13.474;2022-10-16T13:24:42;18.30;99.90
3100;DHT22;1560;52.746;13.474;2022-10-16T13:27:09;18.30;94.40
3100;DHT22;1560;52.746;13.474;2022-10-16T13:29:38;18.30;97.30
3100;DHT22;1560;52.746;13.474;2022-10-16T13:32:10;18.40;91.90
3100;DHT22;1560;52.746;13.474;2022-10-16T13:34:46;18.40;99.90
3100;DHT22;1560;52.746;13.474;2022-10-16T13:37:21;18.40;95.10
3100;DHT22;1560;52.746;13.474;2022-10-16T13:39:50;18.50;93.60
3100;DHT22;1560;52.746;13.474;2022-10-16T13:42:23;18.50;76.90
3100;DHT22;1560;52.746;13.474;2022-10-16T13:44:53;18.40;1.00
3100;DHT22;1560;52.746;13.474;2022-10-16T13:47:23;18.30;1.00
3100;DHT22;1560;52.746;13.474;2022-10-16T13:52:40;18.20;1.00
3100;DHT22;1560;52.746;13.474;2022-10-16T13:55:12;18.20;1.00
3100;DHT22;1560;52.746;13.474;2022-10-16T14:00:57;18.20;1.00
3100;DHT22;1560;52.746;13.474;2022-10-16T14:03:28;18.20;1.00
3100;DHT22;1560;52.746;13.474;2022-10-16T14:05:59;18.20;1.00
3100;DHT22;1560;52.746;13.474;2022-10-16T14:08:29;18.10;1.00
3100;DHT22;1560;52.746;13.474;2022-10-16T14:11:00;18.00;1.00
3100;DHT22;1560;52.746;13.474;2022-10-16T14:13:32;18.00;1.00
3100;DHT22;1560;52.746;13.474;2022-10-16T14:26:40;18.00;1.00
3100;DHT22;1560;52.746;13.474;2022-10-16T14:29:17;17.90;1.00
3100;DHT22;1560;52.746;13.474;2022-10-16T14:32:02;17.90;1.00
3100;DHT22;1560;52.746;13.474;2022-10-16T14:48:00;18.00;1.00
3100;DHT22;1560;52.746;13.474;2022-10-16T14:50:28;17.90;1.00
3100;DHT22;1560;52.746;13.474;2022-10-16T14:52:58;17.80;1.00
3100;DHT22;1560;52.746;13.474;2022-10-16T14:58:10;17.70;1.00
3100;DHT22;1560;52.746;13.474;2022-10-16T15:00:40;17.70;1.00
3100;DHT22;1560;52.746;13.474;2022-10-16T15:03:08;17.70;1.00
3100;DHT22;1560;52.746;13.474;2022-10-16T15:05:38;17.70;1.00
3100;DHT22;1560;52.746;13.474;2022-10-16T15:21:08;17.60;1.00
3100;DHT22;1560;52.746;13.474;2022-10-16T15:26:13;17.40;1.00
3100;DHT22;1560;52.746;13.474;2022-10-16T15:28:47;17.40;1.00
3100;DHT22;1560;52.746;13.474;2022-10-16T15:31:23;17.40;1.00
3100;DHT22;1560;52.746;13.474;2022-10-16T15:33:55;17.30;1.00
3100;DHT22;1560;52.746;13.474;2022-10-16T15:36:26;17.20;1.00
3100;DHT22;1560;52.746;13.474;2022-10-16T15:38:55;17.20;1.00
3100;DHT22;1560;52.746;13.474;2022-10-16T15:44:00;17.10;1.00
3100;DHT22;1560;52.746;13.474;2022-10-16T15:46:28;17.00;1.00
3100;DHT22;1560;52.746;13.474;2022-10-16T15:48:59;17.00;1.00
3100;DHT22;1560;52.746;13.474;2022-10-16T15:54:05;16.90;1.50
3100;DHT22;1560;52.746;13.474;2022-10-16T15:56:35;16.70;12.70
3100;DHT22;1560;52.746;13.474;2022-10-16T15:59:06;16.70;22.20
3100;DHT22;1560;52.746;13.474;2022-10-16T16:01:35;16.60;33.20
3100;DHT22;1560;52.746;13.474;2022-10-16T16:04:04;16.50;44.60
3100;DHT22;1560;52.746;13.474;2022-10-16T16:06:32;16.50;53.30
3100;DHT22;1560;52.746;13.474;2022-10-16T16:09:01;16.40;80.30
3100;DHT22;1560;52.746;13.474;2022-10-16T16:11:31;16.30;82.70
3100;DHT22;1560;52.746;13.474;2022-10-16T16:14:03;16.30;85.90
3100;DHT22;1560;52.746;13.474;2022-10-16T16:16:32;16.20;99.50
3100;DHT22;1560;52.746;13.474;2022-10-16T16:19:02;16.20;99.90
3100;DHT22;1560;52.746;13.474;2022-10-16T16:24:08;16.20;99.90
3100;DHT22;1560;52.746;13.474;2022-10-16T16:26:37;16.00;99.90
3100;DHT22;1560;52.746;13.474;2022-10-16T16:31:43;15.90;99.90
3100;DHT22;1560;52.746;13.474;2022-10-16T16:34:14;15.80;99.90
3100;DHT22;1560;52.746;13.474;2022-10-16T16:39:20;15.60;99.90
3100;DHT22;1560;52.746;13.474;2022-10-16T16:41:48;15.50;99.90
3100;DHT22;1560;52.746;13.474;2022-10-16T16:46:53;15.40;99.90
3100;DHT22;1560;52.746;13.474;2022-10-16T16:49:22;15.30;99.90
3100;DHT22;1560;52.746;13.474;2022-10-16T16:54:27;15.20;99.90
3100;DHT22;1560;52.746;13.474;2022-10-16T16:59:33;15.10;99.90
3100;DHT22;1560;52.746;13.474;2022-10-16T17:02:03;15.10;99.90
3100;DHT22;1560;52.746;13.474;2022-10-16T17:07:07;15.10;99.90
3100;DHT22;1560;52.746;13.474;2022-10-16T17:09:36;15.10;99.90
3100;DHT22;1560;52.746;13.474;2022-10-16T17:12:05;15.00;99.90
3100;DHT22;1560;52.746;13.474;2022-10-16T17:14:33;15.00;99.90
3100;DHT22;1560;52.746;13.474;2022-10-16T17:19:38;14.90;99.90
3100;DHT22;1560;52.746;13.474;2022-10-16T17:22:06;14.80;99.90
3100;DHT22;1560;52.746;13.474;2022-10-16T17:24:36;14.70;99.90
3100;DHT22;1560;52.746;13.474;2022-10-16T17:27:05;14.60;99.90
3100;DHT22;1560;52.746;13.474;2022-10-16T17:29:33;14.50;99.90
3100;DHT22;1560;52.746;13.474;2022-10-16T17:32:01;14.40;99.90
3100;DHT22;1560;52.746;13.474;2022-10-16T17:34:30;14.40;99.90
3100;DHT22;1560;52.746;13.474;2022-10-16T17:36:58;14.40;99.90
3100;DHT22;1560;52.746;13.474;2022-10-16T17:42:03;14.40;99.90
3100;DHT22;1560;52.746;13.474;2022-10-16T17:47:07;14.30;99.90
3100;DHT22;1560;52.746;13.474;2022-10-16T17:49:36;14.20;99.90
3100;DHT22;1560;52.746;13.474;2022-10-16T17:52:08;14.20;99.90
3100;DHT22;1560;52.746;13.474;2022-10-16T17:57:13;14.10;99.90
3100;DHT22;1560;52.746;13.474;2022-10-16T17:59:41;14.10;99.90
3100;DHT22;1560;52.746;13.474;2022-10-16T18:02:10;14.10;99.90
3100;DHT22;1560;52.746;13.474;2022-10-16T18:04:39;14.10;99.90
3100;DHT22;1560;52.746;13.474;2022-10-16T18:09:45;13.90;99.90
3100;DHT22;1560;52.746;13.474;2022-10-16T18:12:13;13.80;99.90
3100;DHT22;1560;52.746;13.474;2022-10-16T18:14:42;13.80;99.90
3100;DHT22;1560;52.746;13.474;2022-10-16T18:19:48;13.70;99.90
3100;DHT22;1560;52.746;13.474;2022-10-16T18:24:53;13.50;99.90
3100;DHT22;1560;52.746;13.474;2022-10-16T18:27:21;13.50;99.90
3100;DHT22;1560;52.746;13.474;2022-10-16T18:29:50;13.50;99.90
3100;DHT22;1560;52.746;13.474;2022-10-16T18:32:20;13.50;99.90
3100;DHT22;1560;52.746;13.474;2022-10-16T18:37:26;13.50;99.90
3100;DHT22;1560;52.746;13.474;2022-10-16T18:39:54;13.60;99.90
3100;DHT22;1560;52.746;13.474;2022-10-16T18:45:18;13.50;99.90
3100;DHT22;1560;52.746;13.474;2022-10-16T18:47:46;13.40;99.90
3100;DHT22;1560;52.746;13.474;2022-10-16T18:50:15;13.40;99.90
3100;DHT22;1560;52.746;13.474;2022-10-16T18:55:24;13.30;99.90
3100;DHT22;1560;52.746;13.474;2022-10-16T18:57:55;13.30;99.90
3100;DHT22;1560;52.746;13.474;2022-10-16T19:00:23;13.30;99.90
3100;DHT22;1560;52.746;13.474;2022-10-16T19:02:52;13.30;99.90
3100;DHT22;1560;52.746;13.474;2022-10-16T19:05:20;13.30;99.90
3100;DHT22;1560;52.746;13.474;2022-10-16T19:07:49;13.30;99.90
3100;DHT22;1560;52.746;13.474;2022-10-16T19:15:16;13.70;99.90
3100;DHT22;1560;52.746;13.474;2022-10-16T19:17:45;13.30;99.90
3100;DHT22;1560;52.746;13.474;2022-10-16T19:22:50;13.00;99.90
3100;DHT22;1560;52.746;13.474;2022-10-16T19:25:21;13.00;99.90
3100;DHT22;1560;52.746;13.474;2022-10-16T19:27:50;13.00;99.90
3100;DHT22;1560;52.746;13.474;2022-10-16T19:30:19;13.00;99.90
3100;DHT22;1560;52.746;13.474;2022-10-16T19:32:49;13.00;99.90
3100;DHT22;1560;52.746;13.474;2022-10-16T19:37:55;13.10;99.90
3100;DHT22;1560;52.746;13.474;2022-10-16T19:40:23;13.10;99.90
3100;DHT22;1560;52.746;13.474;2022-10-16T19:45:29;13.00;99.90
3100;DHT22;1560;52.746;13.474;2022-10-16T19:47:58;13.00;99.90
3100;DHT22;1560;52.746;13.474;2022-10-16T19:53:02;12.90;99.90
3100;DHT22;1560;52.746;13.474;2022-10-16T19:55:31;12.80;99.90
3100;DHT22;1560;52.746;13.474;2022-10-16T19:58:00;12.80;99.90
3100;DHT22;1560;52.746;13.474;2022-10-16T20:03:04;12.90;99.90
3100;DHT22;1560;52.746;13.474;2022-10-16T20:05:33;12.80;99.90
3100;DHT22;1560;52.746;13.474;2022-10-16T20:13:05;12.70;99.90
3100;DHT22;1560;52.746;13.474;2022-10-16T20:15:37;12.70;99.90
3100;DHT22;1560;52.746;13.474;2022-10-16T20:18:05;12.60;99.90
3100;DHT22;1560;52.746;13.474;2022-10-16T20:20:37;12.60;99.90
3100;DHT22;1560;52.746;13.474;2022-10-16T20:23:05;12.60;99.90
3100;DHT22;1560;52.746;13.474;2022-10-16T20:28:14;12.60;99.90
3100;DHT22;1560;52.746;13.474;2022-10-16T20:33:19;12.60;99.90
3100;DHT22;1560;52.746;13.474;2022-10-16T20:35:49;12.50;99.90
3100;DHT22;1560;52.746;13.474;2022-10-16T20:38:18;12.50;99.90
3100;DHT22;1560;52.746;13.474;2022-10-16T20:40:47;12.50;99.90
3100;DHT22;1560;52.746;13.474;2022-10-16T20:43:17;12.50;99.90
3100;DHT22;1560;52.746;13.474;2022-10-16T20:45:46;12.50;99.90
3100;DHT22;1560;52.746;13.474;2022-10-16T20:48:14;12.50;99.90
3100;DHT22;1560;52.746;13.474;2022-10-16T20:53:19;12.50;99.90
3100;DHT22;1560;52.746;13.474;2022-10-16T20:55:48;12.50;99.90
3100;DHT22;1560;52.746;13.474;2022-10-16T20:58:16;12.50;99.90
3100;DHT22;1560;52.746;13.474;2022-10-16T21:03:21;12.50;99.90
3100;DHT22;1560;52.746;13.474;2022-10-16T21:05:49;12.50;99.90
3100;DHT22;1560;52.746;13.474;2022-10-16T21:08:18;12.50;99.90
3100;DHT22;1560;52.746;13.474;2022-10-16T21:10:46;12.50;99.90
3100;DHT22;1560;52.746;13.474;2022-10-16T21:13:15;12.50;99.90
3100;DHT22;1560;52.746;13.474;2022-10-16T21:18:19;12.50;99.90
3100;DHT22;1560;52.746;13.474;2022-10-16T21:20:48;12.40;99.90
3100;DHT22;1560;52.746;13.474;2022-10-16T21:23:16;12.40;99.90
3100;DHT22;1560;52.746;13.474;2022-10-16T21:25:49;12.40;99.90
3100;DHT22;1560;52.746;13.474;2022-10-16T21:28:18;12.40;99.90
3100;DHT22;1560;52.746;13.474;2022-10-16T21:30:46;12.40;99.90
3100;DHT22;1560;52.746;13.474;2022-10-16T21:33:15;12.30;99.90
3100;DHT22;1560;52.746;13.474;2022-10-16T21:38:20;12.30;99.90
3100;DHT22;1560;52.746;13.474;2022-10-16T21:40:49;12.30;99.90
3100;DHT22;1560;52.746;13.474;2022-10-16T21:45:57;12.30;99.90
3100;DHT22;1560;52.746;13.474;2022-10-16T21:51:03;12.30;99.90
3100;DHT22;1560;52.746;13.474;2022-10-16T21:53:32;12.30;99.90
3100;DHT22;1560;52.746;13.474;2022-10-16T21:56:00;12.30;99.90
3100;DHT22;1560;52.746;13.474;2022-10-16T21:58:31;12.20;99.90